createdAt,value
2023-04-15T00:00:00.284Z,8.6
2023-04-15T00:05:00.299Z,8.7
2023-04-15T00:10:00.284Z,8.7
2023-04-15T00:15:00.244Z,8.6
2023-04-15T00:20:00.447Z,8.5
2023-04-15T00:25:00.266Z,8.6
2023-04-15T00:30:00.269Z,8.5
2023-04-15T00:35:00.274Z,8.8
2023-04-15T00:40:00.280Z,8.7
2023-04-15T00:45:00.288Z,8.7
2023-04-15T00:50:00.291Z,8.5
2023-04-15T00:55:00.303Z,8.5
2023-04-15T01:00:00.295Z,8.6
2023-04-15T01:05:00.248Z,8.7
2023-04-15T01:10:00.320Z,8.5
2023-04-15T01:15:00.330Z,8.4
2023-04-15T01:20:00.323Z,8.5
2023-04-15T01:25:00.244Z,8.5
2023-04-15T01:30:00.280Z,8.7
2023-04-15T01:35:00.280Z,8.6
2023-04-15T01:40:00.366Z,8.6
2023-04-15T01:45:00.283Z,8.7
2023-04-15T01:50:00.294Z,8.6
2023-04-15T01:55:00.260Z,8.7
2023-04-15T02:00:00.300Z,8.5
2023-04-15T02:05:00.285Z,8.5
2023-04-15T02:10:00.288Z,8.5
2023-04-15T02:15:00.297Z,8.6
2023-04-15T02:20:00.321Z,8.7
2023-04-15T02:25:00.279Z,8.5
2023-04-15T02:30:00.346Z,8.6
2023-04-15T02:35:00.420Z,8.6
2023-04-15T02:40:00.288Z,8.6
2023-04-15T02:45:00.296Z,8.6
2023-04-15T02:50:00.300Z,8.7
2023-04-15T02:55:00.253Z,8.7
2023-04-15T03:00:00.283Z,8.7
2023-04-15T03:05:00.248Z,8.7
2023-04-15T03:10:00.269Z,8.8
2023-04-15T03:15:00.264Z,8.8
2023-04-15T03:20:00.296Z,8.6
2023-04-15T03:25:00.284Z,8.6
2023-04-15T03:30:00.282Z,8.7
2023-04-15T03:35:00.293Z,8.7
2023-04-15T03:40:00.250Z,8.5
2023-04-15T03:45:00.325Z,8.8
2023-04-15T03:50:00.294Z,8.6
2023-04-15T03:55:00.244Z,8.6
2023-04-15T04:00:00.295Z,8.3
2023-04-15T04:05:00.247Z,8.6
2023-04-15T04:10:00.298Z,8.6
2023-04-15T04:15:00.291Z,8.7
2023-04-15T04:20:00.286Z,8.7
2023-04-15T04:25:00.251Z,8.8
2023-04-15T04:30:00.277Z,8.9
2023-04-15T04:35:00.312Z,8.9
2023-04-15T04:40:00.274Z,9.1
2023-04-15T04:45:00.291Z,9.0
2023-04-15T04:50:00.386Z,8.9
2023-04-15T04:55:00.280Z,8.7
2023-04-15T05:00:01.094Z,8.9
2023-04-15T05:05:00.456Z,8.7
2023-04-15T05:10:00.277Z,8.8
2023-04-15T05:15:00.280Z,8.8
2023-04-15T05:20:00.298Z,8.6
2023-04-15T05:25:00.290Z,8.8
2023-04-15T05:30:00.289Z,8.8
2023-04-15T05:35:00.304Z,8.9
2023-04-15T05:40:00.278Z,9.0
2023-04-15T05:45:00.292Z,8.9
2023-04-15T05:50:00.300Z,8.8
2023-04-15T05:55:00.238Z,8.9
2023-04-15T06:00:00.295Z,8.7
2023-04-15T06:05:00.427Z,8.7
2023-04-15T06:10:00.277Z,8.9
2023-04-15T06:15:00.521Z,8.9
2023-04-15T06:20:00.300Z,8.9
2023-04-15T06:25:00.306Z,8.9
2023-04-15T06:30:00.292Z,8.9
2023-04-15T06:35:00.237Z,8.8
2023-04-15T06:40:00.297Z,8.9
2023-04-15T06:45:00.274Z,8.8
2023-04-15T06:50:00.312Z,9.1
2023-04-15T06:55:00.252Z,9.0
2023-04-15T07:00:00.974Z,9.0
2023-04-15T07:05:00.233Z,9.0
2023-04-15T07:10:00.274Z,9.0
2023-04-15T07:15:00.287Z,9.1
2023-04-15T07:20:00.322Z,9.0
2023-04-15T07:25:00.255Z,9.1
2023-04-15T07:30:00.303Z,9.0
2023-04-15T07:35:00.281Z,9.2
2023-04-15T07:40:00.341Z,9.1
2023-04-15T07:45:00.242Z,9.3
2023-04-15T07:50:00.271Z,9.4
2023-04-15T07:55:00.303Z,9.3
2023-04-15T08:00:00.283Z,9.3
2023-04-15T08:05:00.365Z,9.4
2023-04-15T08:10:00.280Z,9.3
2023-04-15T08:15:00.314Z,9.3
2023-04-15T08:20:00.249Z,9.3
2023-04-15T08:25:00.397Z,9.5
2023-04-15T08:30:02.105Z,9.5
2023-04-15T08:35:00.295Z,9.5
2023-04-15T08:40:00.292Z,9.7
2023-04-15T08:45:00.280Z,9.5
2023-04-15T08:50:00.280Z,9.5
2023-04-15T08:55:00.503Z,9.7
2023-04-15T09:00:01.765Z,9.6
2023-04-15T09:05:00.297Z,9.7
2023-04-15T09:10:00.295Z,9.7
2023-04-15T09:15:00.276Z,9.9
2023-04-15T09:20:00.284Z,9.8
2023-04-15T09:25:00.290Z,9.8
2023-04-15T09:30:00.349Z,10.3
2023-04-15T09:35:00.243Z,10.6
2023-04-15T09:40:00.289Z,10.8
2023-04-15T09:45:00.265Z,11.1
2023-04-15T09:50:00.505Z,11.3
2023-04-15T09:55:00.341Z,11.7
2023-04-15T10:00:00.287Z,11.7
2023-04-15T10:05:00.251Z,11.8
2023-04-15T10:10:00.278Z,11.8
2023-04-15T10:15:00.260Z,11.9
2023-04-15T10:20:00.291Z,12.1
2023-04-15T10:25:00.238Z,12.2
2023-04-15T10:30:00.287Z,12.4
2023-04-15T10:35:00.317Z,12.7
2023-04-15T10:40:00.274Z,12.9
2023-04-15T10:45:00.254Z,12.9
2023-04-15T10:50:00.316Z,12.9
2023-04-15T10:55:00.280Z,12.8
2023-04-15T11:00:00.347Z,13.0
2023-04-15T11:05:00.328Z,13.2
2023-04-15T11:10:00.295Z,13.5
2023-04-15T11:15:00.270Z,13.2
2023-04-15T11:20:00.272Z,13.6
2023-04-15T11:25:00.290Z,13.2
2023-04-15T11:30:00.293Z,13.3
2023-04-15T11:35:00.278Z,13.2
2023-04-15T11:40:00.282Z,12.8
2023-04-15T11:45:00.310Z,12.9
2023-04-15T11:50:00.306Z,13.0
2023-04-15T11:55:00.286Z,13.2
2023-04-15T12:00:00.341Z,12.8
2023-04-15T12:05:00.296Z,13.0
2023-04-15T12:10:00.300Z,13.2
2023-04-15T12:15:00.309Z,13.1
2023-04-15T12:20:00.286Z,13.2
2023-04-15T12:25:00.292Z,13.2
2023-04-15T12:30:00.286Z,13.1
2023-04-15T12:35:00.267Z,12.9
2023-04-15T12:40:00.301Z,12.9
2023-04-15T12:45:00.280Z,12.9
2023-04-15T12:50:00.292Z,13.1
2023-04-15T12:55:00.301Z,13.1
2023-04-15T13:00:00.274Z,13.3
2023-04-15T13:05:00.370Z,13.1
2023-04-15T13:10:00.236Z,13.2
2023-04-15T13:15:00.290Z,13.2
2023-04-15T13:20:00.301Z,13.3
2023-04-15T13:25:00.268Z,13.3
2023-04-15T13:30:00.524Z,13.4
2023-04-15T13:35:00.240Z,13.6
2023-04-15T13:40:00.342Z,13.6
2023-04-15T13:45:00.277Z,13.7
2023-04-15T13:50:00.318Z,13.8
2023-04-15T13:55:07.227Z,14.2
2023-04-15T14:00:00.274Z,14.6
2023-04-15T14:05:00.292Z,14.9
2023-04-15T14:10:00.308Z,14.4
2023-04-15T14:15:00.237Z,14.4
2023-04-15T14:20:00.288Z,14.4
2023-04-15T14:25:00.305Z,14.4
2023-04-15T14:30:00.283Z,14.4
2023-04-15T14:35:00.250Z,14.5
2023-04-15T14:40:00.315Z,14.4
2023-04-15T14:45:00.276Z,14.6
2023-04-15T14:50:00.268Z,14.8
2023-04-15T14:55:00.300Z,14.8
2023-04-15T15:00:00.277Z,14.7
2023-04-15T15:05:00.467Z,14.7
2023-04-15T15:10:00.315Z,14.9
2023-04-15T15:15:01.614Z,14.7
2023-04-15T15:20:00.324Z,14.4
2023-04-15T15:25:00.277Z,14.7
2023-04-15T15:30:00.627Z,14.6
2023-04-15T15:35:00.264Z,14.2
2023-04-15T15:40:00.398Z,14.3
2023-04-15T15:45:00.294Z,14.3
2023-04-15T15:50:00.303Z,14.2
2023-04-15T15:55:00.285Z,14.1
2023-04-15T16:00:11.343Z,14.0
2023-04-15T16:05:00.317Z,13.9
2023-04-15T16:10:00.277Z,13.8
2023-04-15T16:15:00.276Z,13.8
2023-04-15T16:20:01.163Z,13.7
2023-04-15T16:25:00.281Z,13.6
2023-04-15T16:30:00.321Z,13.6
2023-04-15T16:35:00.388Z,13.7
2023-04-15T16:40:00.298Z,13.6
2023-04-15T16:45:00.852Z,13.4
2023-04-15T16:50:00.257Z,13.3
2023-04-15T16:55:02.291Z,13.4
2023-04-15T17:00:00.309Z,13.2
2023-04-15T17:05:00.243Z,13.0
2023-04-15T17:10:00.297Z,13.1
2023-04-15T17:15:00.255Z,13.0
2023-04-15T17:20:00.300Z,13.0
2023-04-15T17:25:00.298Z,12.9
2023-04-15T17:30:00.288Z,12.9
2023-04-15T17:35:00.239Z,12.8
2023-04-15T17:40:00.275Z,12.5
2023-04-15T17:45:00.306Z,12.5
2023-04-15T17:50:00.315Z,12.3
2023-04-15T17:55:00.251Z,12.0
2023-04-15T18:00:00.263Z,12.3
2023-04-15T18:05:00.388Z,12.2
2023-04-15T18:10:00.274Z,12.1
2023-04-15T18:15:00.283Z,12.2
2023-04-15T18:20:00.277Z,12.0
2023-04-15T18:25:00.236Z,11.8
2023-04-15T18:30:00.375Z,11.9
2023-04-15T18:35:00.296Z,11.6
2023-04-15T18:40:00.277Z,11.5
2023-04-15T18:45:00.249Z,11.5
2023-04-15T18:50:00.315Z,11.6
2023-04-15T18:55:00.246Z,11.4
2023-04-15T19:00:00.287Z,11.3
2023-04-15T19:05:00.279Z,11.1
2023-04-15T19:10:00.293Z,11.1
2023-04-15T19:15:00.250Z,10.9
2023-04-15T19:20:00.294Z,11.0
2023-04-15T19:25:00.948Z,10.9
2023-04-15T19:30:00.285Z,10.9
2023-04-15T19:35:00.267Z,10.8
2023-04-15T19:40:00.291Z,10.8
2023-04-15T19:45:00.261Z,10.5
2023-04-15T19:50:00.286Z,10.7
2023-04-15T19:55:00.278Z,10.7
2023-04-15T20:00:00.302Z,10.6
2023-04-15T20:05:00.245Z,10.6
2023-04-15T20:10:00.358Z,10.3
2023-04-15T20:15:00.278Z,10.4
2023-04-15T20:20:00.326Z,10.3
2023-04-15T20:25:00.291Z,10.1
2023-04-15T20:30:00.400Z,10.1
2023-04-15T20:35:01.110Z,10.3
2023-04-15T20:40:00.273Z,10.2
2023-04-15T20:45:00.280Z,10.1
2023-04-15T20:50:00.283Z,9.9
2023-04-15T20:55:00.305Z,10.0
2023-04-15T21:00:00.238Z,9.9
2023-04-15T21:05:00.484Z,9.9
2023-04-15T21:10:00.262Z,9.7
2023-04-15T21:15:00.287Z,9.9
2023-04-15T21:20:00.289Z,9.6
2023-04-15T21:25:00.293Z,9.7
2023-04-15T21:30:00.246Z,9.4
2023-04-15T21:35:00.296Z,9.4
2023-04-15T21:40:00.293Z,9.6
2023-04-15T21:45:00.298Z,9.7
2023-04-15T21:50:00.246Z,9.4
2023-04-15T21:55:00.282Z,9.6
2023-04-15T22:00:00.316Z,9.3
2023-04-15T22:05:00.284Z,9.5
2023-04-15T22:10:00.312Z,9.5
2023-04-15T22:15:00.313Z,9.5
2023-04-15T22:20:00.405Z,9.5
2023-04-15T22:25:00.240Z,9.9
2023-04-15T22:30:00.276Z,9.6
2023-04-15T22:35:00.270Z,9.4
2023-04-15T22:40:00.301Z,9.4
2023-04-15T22:45:00.239Z,9.6
2023-04-15T22:50:00.288Z,9.4
2023-04-15T22:55:00.243Z,9.3
2023-04-15T23:00:00.737Z,9.2
2023-04-15T23:05:00.506Z,9.1
2023-04-15T23:10:00.275Z,9.3
2023-04-15T23:15:00.239Z,9.0
2023-04-15T23:20:00.306Z,9.1
2023-04-15T23:25:00.274Z,9.2
2023-04-15T23:30:00.298Z,9.0
2023-04-15T23:35:00.261Z,9.1
2023-04-15T23:40:00.290Z,9.1
2023-04-15T23:45:00.267Z,8.9
2023-04-15T23:50:00.276Z,9.0
2023-04-15T23:55:00.304Z,8.8
